Time;durP1;ratioP1;P1;durP2;ratioP2;P2;SDS_P1;SDS_P2;PMS_P1;PMS_P2;Temp;Humidity;BMP_temperature;BMP_pressure;BME280_temperature;BME280_humidity;BME280_pressure;Samples;Min_cycle;Max_cycle;Signal;HPM_P1;HPM_P2
2022/04/06 00:01:47;;;;;;;10.07;6.83;;;10.40;84.60;;;;;;5019045;28;20488;-71
2022/04/06 00:04:15;;;;;;;9.17;6.47;;;10.40;84.60;;;;;;5020086;28;20946;-71
2022/04/06 00:06:43;;;;;;;8.47;6.03;;;10.40;84.70;;;;;;5019445;28;21302;-71
2022/04/06 00:09:19;;;;;;;8.77;6.17;;;10.40;84.70;;;;;;5017898;28;20837;-71
2022/04/06 00:11:47;;;;;;;8.33;6.37;;;10.40;84.70;;;;;;5010054;28;20465;-71
2022/04/06 00:14:17;;;;;;;10.50;6.53;;;10.50;84.60;;;;;;5022771;28;20458;-70
2022/04/06 00:16:46;;;;;;;15.50;7.07;;;10.50;84.60;;;;;;5019675;28;20487;-70
2022/04/06 00:19:14;;;;;;;8.80;6.53;;;10.40;84.60;;;;;;5015777;28;20472;-70
2022/04/06 00:21:42;;;;;;;9.77;5.87;;;10.50;84.60;;;;;;5020271;28;20461;-70
2022/04/06 00:24:10;;;;;;;8.90;6.23;;;10.50;84.60;;;;;;5017369;28;20481;-71
2022/04/06 00:26:38;;;;;;;9.33;5.80;;;10.50;84.50;;;;;;5032192;28;20479;-70
2022/04/06 00:29:06;;;;;;;8.40;6.17;;;10.50;84.50;;;;;;5032265;28;20494;-71
2022/04/06 00:31:35;;;;;;;9.83;6.17;;;10.40;84.60;;;;;;5013232;28;20488;-71
2022/04/06 00:34:03;;;;;;;9.00;7.20;;;10.40;84.60;;;;;;5018249;28;20454;-71
2022/04/06 00:36:31;;;;;;;10.50;6.60;;;10.40;84.60;;;;;;5017317;28;20459;-70
2022/04/06 00:38:59;;;;;;;9.93;6.60;;;10.40;84.70;;;;;;5016287;28;20490;-70
2022/04/06 00:41:27;;;;;;;8.60;5.90;;;10.40;84.70;;;;;;5017090;28;20483;-70
2022/04/06 00:44:12;;;;;;;10.00;6.13;;;10.40;84.70;;;;;;5019896;28;20545;-70
2022/04/06 00:46:43;;;;;;;8.37;6.10;;;10.40;84.60;;;;;;5018694;28;20538;-71
2022/04/06 00:49:14;;;;;;;8.70;6.13;;;10.50;84.60;;;;;;5016850;28;20483;-71
2022/04/06 00:51:45;;;;;;;8.50;5.83;;;10.50;84.60;;;;;;5015574;28;20466;-71
2022/04/06 00:54:14;;;;;;;10.60;7.27;;;10.40;84.60;;;;;;5019040;28;20836;-70
2022/04/06 00:56:44;;;;;;;8.63;6.30;;;10.40;84.60;;;;;;5018354;28;20456;-70
2022/04/06 00:59:12;;;;;;;9.47;6.60;;;10.40;84.70;;;;;;5014902;28;20491;-71
2022/04/06 01:01:41;;;;;;;10.37;7.53;;;10.50;84.60;;;;;;5019473;28;20860;-71
2022/04/06 01:04:10;;;;;;;11.80;8.00;;;10.50;84.60;;;;;;5021980;28;21047;-71
2022/04/06 01:06:38;;;;;;;10.27;7.80;;;10.40;84.60;;;;;;5017800;28;20456;-71
2022/04/06 01:09:06;;;;;;;13.40;8.67;;;10.40;84.60;;;;;;5012042;28;20468;-70
2022/04/06 01:11:35;;;;;;;12.60;8.07;;;10.40;84.60;;;;;;5013639;28;21000;-70
2022/04/06 01:14:03;;;;;;;12.30;8.00;;;10.40;84.70;;;;;;5015566;28;20464;-71
2022/04/06 01:16:31;;;;;;;11.60;7.70;;;10.40;84.70;;;;;;5014972;28;21177;-71
2022/04/06 01:19:01;;;;;;;12.23;8.90;;;10.40;84.80;;;;;;5017987;28;20571;-70
2022/04/06 01:21:29;;;;;;;12.27;8.60;;;10.40;84.80;;;;;;5013792;28;20487;-70
2022/04/06 01:23:59;;;;;;;10.07;7.90;;;10.40;85.00;;;;;;5015462;28;20679;-70
2022/04/06 01:26:27;;;;;;;12.50;8.43;;;10.40;85.00;;;;;;5012893;28;20455;-70
2022/04/06 01:28:55;;;;;;;12.30;8.40;;;10.40;85.00;;;;;;5019263;28;20483;-71
2022/04/06 01:31:22;;;;;;;10.60;8.40;;;10.40;84.90;;;;;;5018988;28;20510;-70
2022/04/06 01:33:50;;;;;;;10.33;7.60;;;10.40;84.90;;;;;;5033052;28;20453;-71
2022/04/06 01:36:18;;;;;;;9.90;7.30;;;10.40;84.90;;;;;;5021339;28;20452;-70
2022/04/06 01:38:46;;;;;;;13.73;8.33;;;10.40;85.00;;;;;;5020678;28;20492;-71
2022/04/06 01:41:15;;;;;;;10.07;7.70;;;10.40;85.00;;;;;;5019255;28;20480;-71
2022/04/06 01:43:43;;;;;;;9.87;7.50;;;10.40;85.00;;;;;;5013858;28;20990;-71
2022/04/06 01:46:11;;;;;;;11.27;7.90;;;10.40;85.10;;;;;;5021082;28;20472;-70
2022/04/06 01:52:12;;;;;;;10.67;7.53;;;10.40;85.10;;;;;;5016481;28;20481;-69
2022/04/06 01:54:14;;;;;;;10.33;7.40;;;10.40;85.10;;;;;;5020389;28;20462;-70
2022/04/06 01:56:43;;;;;;;10.67;7.87;;;10.40;85.20;;;;;;5016301;28;20542;-70
2022/04/06 01:59:11;;;;;;;10.83;8.00;;;10.40;85.00;;;;;;5017372;28;20475;-70
2022/04/06 02:01:39;;;;;;;12.77;8.50;;;10.40;85.00;;;;;;5019890;28;20877;-70
2022/04/06 02:04:14;;;;;;;10.87;7.80;;;10.40;85.10;;;;;;5021244;28;20490;-70
2022/04/06 02:06:43;;;;;;;12.23;8.23;;;10.40;85.30;;;;;;5027257;28;20468;-70
2022/04/06 02:09:18;;;;;;;13.10;9.33;;;10.40;85.30;;;;;;5019570;28;20562;-70
2022/04/06 02:11:48;;;;;;;12.60;8.27;;;10.40;85.40;;;;;;5021494;28;20466;-69
2022/04/06 02:14:16;;;;;;;14.07;9.40;;;10.40;85.30;;;;;;5033291;28;20445;-69
2022/04/06 02:16:44;;;;;;;12.83;9.20;;;10.40;85.20;;;;;;5018375;28;20981;-70
2022/04/06 02:19:12;;;;;;;14.00;10.60;;;10.40;85.20;;;;;;5019210;28;20575;-69
2022/04/06 02:21:40;;;;;;;13.00;9.20;;;10.40;85.10;;;;;;5017616;28;20476;-71
2022/04/06 02:24:08;;;;;;;14.70;10.37;;;10.40;85.10;;;;;;5017963;28;20480;-70
2022/04/06 02:26:36;;;;;;;14.27;10.47;;;10.40;85.10;;;;;;5018843;28;20463;-70
2022/04/06 02:29:05;;;;;;;16.40;11.60;;;10.40;85.20;;;;;;5015558;28;20494;-70
2022/04/06 02:31:34;;;;;;;16.60;12.03;;;10.40;85.20;;;;;;5017404;28;20503;-70
2022/04/06 02:34:02;;;;;;;16.27;12.00;;;10.40;85.20;;;;;;5018714;28;20452;-70
2022/04/06 02:36:30;;;;;;;15.47;11.83;;;10.40;85.20;;;;;;5022223;28;20528;-70
2022/04/06 02:38:59;;;;;;;13.93;11.20;;;10.40;85.20;;;;;;5019735;28;20495;-70
2022/04/06 02:41:28;;;;;;;14.70;11.60;;;10.40;85.40;;;;;;5015827;28;20456;-70
2022/04/06 02:43:56;;;;;;;18.20;11.93;;;10.30;85.20;;;;;;5020448;28;20476;-70
2022/04/06 02:46:25;;;;;;;16.07;11.67;;;10.30;85.40;;;;;;5013962;28;20480;-70
2022/04/06 02:48:53;;;;;;;20.83;12.17;;;10.30;85.40;;;;;;5015423;28;20530;-70
2022/04/06 02:51:21;;;;;;;14.83;10.77;;;10.40;85.20;;;;;;5015560;28;20541;-70
2022/04/06 02:53:49;;;;;;;21.03;10.87;;;10.40;85.40;;;;;;5021056;28;20467;-70
2022/04/06 02:56:17;;;;;;;16.10;12.20;;;10.30;85.40;;;;;;5019726;28;20980;-70
2022/04/06 02:58:44;;;;;;;16.53;12.03;;;10.40;85.30;;;;;;5018517;28;20920;-69
2022/04/06 03:01:12;;;;;;;16.60;11.90;;;10.30;85.50;;;;;;5017076;28;20489;-70
2022/04/06 03:03:43;;;;;;;17.27;12.83;;;10.30;85.80;;;;;;5019425;28;20448;-70
2022/04/06 03:06:11;;;;;;;19.07;13.70;;;10.30;85.80;;;;;;5023193;28;20463;-70
2022/04/06 03:08:39;;;;;;;17.30;12.93;;;10.30;85.60;;;;;;5021625;28;20870;-71
2022/04/06 03:11:07;;;;;;;19.90;14.53;;;10.30;85.60;;;;;;5024080;28;21020;-71
2022/04/06 03:13:35;;;;;;;20.90;15.13;;;10.30;85.60;;;;;;5017758;28;20460;-70
2022/04/06 03:16:04;;;;;;;19.90;14.63;;;10.30;85.70;;;;;;5020561;28;20485;-69
2022/04/06 03:18:32;;;;;;;19.50;14.20;;;10.30;85.60;;;;;;5018523;28;20484;-70
2022/04/06 03:21:01;;;;;;;23.37;16.20;;;10.30;85.70;;;;;;5019650;28;20467;-70
2022/04/06 03:23:29;;;;;;;23.20;16.80;;;10.30;85.70;;;;;;5019328;28;20454;-71
2022/04/06 03:25:57;;;;;;;22.30;15.63;;;10.30;85.90;;;;;;5025529;28;20472;-71
2022/04/06 03:28:25;;;;;;;24.30;16.90;;;10.30;85.80;;;;;;5023631;28;20528;-70
2022/04/06 03:30:53;;;;;;;23.37;17.17;;;10.30;85.90;;;;;;5023154;28;20522;-70
2022/04/06 03:33:21;;;;;;;21.07;15.17;;;10.20;86.00;;;;;;5019535;28;20456;-70
2022/04/06 03:35:50;;;;;;;21.63;16.10;;;10.20;86.00;;;;;;5016359;28;20457;-70
2022/04/06 03:38:19;;;;;;;21.33;15.97;;;10.20;86.00;;;;;;5016672;28;20614;-69
2022/04/06 03:40:48;;;;;;;17.23;13.57;;;10.20;86.10;;;;;;5015825;28;20464;-71
2022/04/06 03:43:16;;;;;;;21.10;14.97;;;10.20;86.00;;;;;;5015554;28;20452;-70
2022/04/06 03:45:44;;;;;;;20.00;14.90;;;10.30;86.10;;;;;;5013563;28;20835;-70
2022/04/06 03:48:12;;;;;;;21.90;14.87;;;10.30;86.10;;;;;;5013633;28;20475;-72
2022/04/06 03:50:40;;;;;;;17.63;13.90;;;10.20;86.30;;;;;;5012651;28;20467;-70
2022/04/06 03:53:08;;;;;;;17.53;13.17;;;10.20;86.10;;;;;;5014954;28;20471;-70
2022/04/06 03:55:37;;;;;;;18.60;13.00;;;10.30;86.20;;;;;;5017330;28;20463;-71
2022/04/06 03:58:06;;;;;;;17.27;12.70;;;10.30;86.00;;;;;;5019621;28;20475;-70
2022/04/06 04:00:34;;;;;;;15.70;11.57;;;10.30;86.20;;;;;;5018274;28;20481;-70
2022/04/06 04:03:02;;;;;;;18.27;12.67;;;10.20;86.20;;;;;;5008294;28;20469;-70
2022/04/06 04:05:30;;;;;;;16.40;12.03;;;10.30;86.20;;;;;;5013726;28;21297;-70
2022/04/06 04:07:58;;;;;;;16.50;11.37;;;10.30;86.20;;;;;;5015202;28;20456;-71
2022/04/06 04:10:26;;;;;;;17.57;11.33;;;10.30;86.10;;;;;;5017702;28;20464;-70
2022/04/06 04:12:56;;;;;;;13.60;10.80;;;10.30;86.00;;;;;;5021107;28;20471;-70
2022/04/06 04:15:24;;;;;;;14.93;10.10;;;10.30;86.10;;;;;;5019412;28;20452;-70
2022/04/06 04:17:52;;;;;;;14.77;10.07;;;10.30;86.10;;;;;;5020456;28;20471;-70
2022/04/06 04:20:20;;;;;;;16.00;9.77;;;10.30;86.10;;;;;;5016778;28;20460;-71
2022/04/06 04:22:48;;;;;;;13.70;10.40;;;10.30;86.00;;;;;;5019165;28;20468;-71
2022/04/06 04:25:16;;;;;;;16.27;11.37;;;10.30;86.00;;;;;;5018049;28;20483;-70
2022/04/06 04:27:44;;;;;;;14.10;10.40;;;10.40;85.80;;;;;;5015529;28;20827;-70
2022/04/06 04:30:14;;;;;;;14.87;9.63;;;10.40;85.80;;;;;;5021579;28;20493;-71
2022/04/06 04:32:41;;;;;;;13.37;9.37;;;10.40;85.80;;;;;;5023271;28;20475;-71
2022/04/06 04:35:11;;;;;;;16.20;9.80;;;10.40;85.70;;;;;;5028853;28;20959;-70
2022/04/06 04:37:38;;;;;;;15.00;10.93;;;10.40;85.60;;;;;;5014282;28;20457;-70
2022/04/06 04:40:09;;;;;;;14.10;10.07;;;10.40;85.70;;;;;;5021260;28;20492;-70
2022/04/06 04:42:37;;;;;;;16.70;10.43;;;10.40;85.70;;;;;;5014833;28;20487;-70
2022/04/06 04:45:06;;;;;;;14.53;10.77;;;10.40;85.70;;;;;;5021116;28;20488;-71
2022/04/06 04:47:36;;;;;;;13.93;10.40;;;10.40;85.70;;;;;;5016506;28;20468;-71
2022/04/06 04:50:04;;;;;;;14.30;10.50;;;10.40;85.70;;;;;;5017439;28;20590;-70
2022/04/06 04:52:32;;;;;;;13.27;10.70;;;10.40;85.70;;;;;;5022916;28;20464;-70
2022/04/06 04:55:00;;;;;;;14.20;10.20;;;10.40;85.60;;;;;;5018007;28;20463;-71
2022/04/06 04:57:28;;;;;;;13.23;10.00;;;10.40;85.60;;;;;;5019167;28;20877;-70
2022/04/06 04:59:56;;;;;;;14.10;9.87;;;10.40;85.60;;;;;;5021020;28;20519;-71
2022/04/06 05:02:24;;;;;;;14.33;10.00;;;10.40;85.70;;;;;;5014681;28;20483;-70
2022/04/06 05:04:53;;;;;;;13.70;10.30;;;10.40;85.70;;;;;;5015537;28;20456;-71
2022/04/06 05:07:21;;;;;;;14.33;10.30;;;10.40;85.70;;;;;;5014654;28;20543;-71
2022/04/06 05:09:49;;;;;;;12.63;9.23;;;10.40;85.70;;;;;;5013905;28;20489;-71
2022/04/06 05:12:17;;;;;;;13.93;9.70;;;10.40;85.80;;;;;;5014129;28;20529;-71
2022/04/06 05:14:45;;;;;;;16.50;9.70;;;10.40;85.80;;;;;;5018076;28;20953;-71
2022/04/06 05:17:13;;;;;;;11.43;8.93;;;10.40;85.80;;;;;;5018070;28;20475;-71
2022/04/06 05:19:41;;;;;;;13.80;10.13;;;10.40;85.70;;;;;;5018107;28;21007;-71
2022/04/06 05:22:11;;;;;;;13.00;8.93;;;10.40;85.80;;;;;;5025807;28;20524;-71
2022/04/06 05:24:39;;;;;;;11.27;8.60;;;10.40;85.80;;;;;;5025504;28;20541;-71
2022/04/06 05:27:07;;;;;;;14.53;9.40;;;10.40;85.80;;;;;;5019472;28;20491;-70
2022/04/06 05:29:35;;;;;;;12.17;8.30;;;10.40;85.80;;;;;;5019006;28;20626;-70
2022/04/06 05:32:03;;;;;;;15.20;8.60;;;10.40;85.70;;;;;;5019716;28;21012;-71
2022/04/06 05:34:32;;;;;;;11.30;8.10;;;10.40;85.70;;;;;;5016656;28;20976;-70
2022/04/06 05:37:00;;;;;;;11.80;8.50;;;10.40;85.70;;;;;;5013932;28;20479;-70
2022/04/06 05:39:29;;;;;;;13.70;8.53;;;10.40;85.70;;;;;;5021806;28;20487;-70
2022/04/06 05:41:57;;;;;;;13.27;8.40;;;10.40;85.70;;;;;;5022085;28;20462;-71
2022/04/06 05:44:25;;;;;;;10.87;8.03;;;10.50;85.60;;;;;;5017827;28;20471;-71
2022/04/06 05:46:53;;;;;;;10.63;8.03;;;10.50;85.70;;;;;;5023350;28;20506;-70
2022/04/06 05:49:21;;;;;;;9.57;6.90;;;10.50;85.60;;;;;;5020091;28;20482;-70
2022/04/06 05:51:49;;;;;;;11.63;7.33;;;10.50;85.60;;;;;;5022243;28;20452;-69
2022/04/06 05:54:17;;;;;;;11.30;7.90;;;10.50;85.60;;;;;;5020091;28;20463;-71
2022/04/06 05:56:46;;;;;;;10.70;7.00;;;10.50;85.60;;;;;;5020325;28;20467;-70
2022/04/06 05:59:14;;;;;;;14.50;7.30;;;10.50;85.50;;;;;;5015824;28;20484;-70
2022/04/06 06:01:42;;;;;;;9.13;6.60;;;10.60;85.50;;;;;;5013454;28;21222;-70
2022/04/06 06:04:10;;;;;;;10.10;7.10;;;10.60;85.40;;;;;;5015671;28;20457;-70
2022/04/06 06:06:38;;;;;;;10.90;7.17;;;10.60;85.20;;;;;;5014152;28;20476;-71
2022/04/06 06:09:06;;;;;;;10.00;6.40;;;10.60;85.20;;;;;;5015143;28;20475;-71
2022/04/06 06:11:36;;;;;;;10.97;7.20;;;10.70;85.00;;;;;;5018126;28;20448;-71
2022/04/06 06:14:06;;;;;;;11.40;6.50;;;10.70;85.00;;;;;;5018464;28;20945;-71
2022/04/06 06:16:34;;;;;;;10.17;6.90;;;10.70;85.00;;;;;;5024539;28;20563;-71
2022/04/06 06:19:02;;;;;;;9.70;6.10;;;10.70;84.90;;;;;;5019340;28;20622;-71
2022/04/06 06:21:32;;;;;;;8.93;6.30;;;10.80;84.80;;;;;;5018308;28;20456;-70
2022/04/06 06:24:02;;;;;;;10.07;6.70;;;10.80;84.50;;;;;;5022422;28;20490;-70
2022/04/06 06:26:30;;;;;;;9.30;6.50;;;10.80;84.60;;;;;;5016920;28;21046;-71
2022/04/06 06:28:58;;;;;;;9.63;6.70;;;10.80;84.40;;;;;;5020340;28;20477;-70
2022/04/06 06:31:29;;;;;;;10.03;6.00;;;10.90;84.20;;;;;;5017614;28;20535;-71
2022/04/06 06:33:57;;;;;;;7.47;5.67;;;10.90;84.30;;;;;;5020378;28;20464;-71
2022/04/06 06:36:25;;;;;;;10.00;6.97;;;10.90;84.10;;;;;;5018842;28;20444;-71
2022/04/06 06:38:54;;;;;;;9.33;5.90;;;10.90;84.20;;;;;;5019039;28;20630;-70
2022/04/06 06:41:23;;;;;;;8.80;6.60;;;10.90;84.20;;;;;;5018341;28;20469;-70
2022/04/06 06:43:53;;;;;;;9.23;6.07;;;10.90;84.00;;;;;;5035161;28;20453;-70
2022/04/06 06:46:22;;;;;;;9.77;7.40;;;11.00;83.90;;;;;;5018465;28;21236;-69
2022/04/06 06:48:51;;;;;;;9.93;6.77;;;11.10;83.70;;;;;;5017813;28;20480;-70
2022/04/06 06:51:19;;;;;;;12.20;6.70;;;11.10;83.60;;;;;;5020332;28;20584;-70
2022/04/06 06:53:47;;;;;;;9.50;6.70;;;11.10;83.70;;;;;;5022077;28;20456;-71
2022/04/06 06:56:15;;;;;;;9.30;6.50;;;11.10;83.50;;;;;;5018925;28;20445;-71
2022/04/06 06:58:49;;;;;;;10.40;6.23;;;11.10;83.50;;;;;;5036175;28;20476;-71
2022/04/06 07:01:17;;;;;;;9.70;6.53;;;11.20;83.20;;;;;;5021100;28;20487;-70
2022/04/06 07:03:45;;;;;;;10.37;6.63;;;11.20;83.20;;;;;;5019167;28;20557;-70
2022/04/06 07:06:14;;;;;;;13.37;7.67;;;11.20;83.40;;;;;;5021336;28;20482;-71
2022/04/06 07:08:42;;;;;;;10.70;7.63;;;11.30;83.40;;;;;;5016212;28;21032;-70
2022/04/06 07:11:11;;;;;;;12.53;7.40;;;11.30;83.30;;;;;;5016827;28;20477;-70
2022/04/06 07:13:39;;;;;;;12.93;7.57;;;11.40;83.20;;;;;;5026138;28;20456;-70
2022/04/06 07:16:07;;;;;;;11.73;7.00;;;11.40;82.70;;;;;;5035511;28;21051;-70
2022/04/06 07:18:35;;;;;;;13.77;7.57;;;11.50;82.80;;;;;;5019914;28;20483;-70
2022/04/06 07:21:03;;;;;;;9.27;6.63;;;11.50;82.60;;;;;;5023596;28;20818;-70
2022/04/06 07:23:33;;;;;;;12.63;7.90;;;11.40;82.20;;;;;;5018132;28;20461;-70
2022/04/06 07:26:01;;;;;;;11.20;7.67;;;11.50;82.50;;;;;;5016371;28;20477;-71
2022/04/06 07:28:29;;;;;;;11.20;8.13;;;11.50;82.40;;;;;;5009960;28;20472;-70
2022/04/06 07:30:57;;;;;;;10.17;7.90;;;11.50;82.10;;;;;;5020747;28;20480;-71
2022/04/06 07:33:30;;;;;;;15.23;7.70;;;11.50;82.00;;;;;;5019237;28;20467;-70
2022/04/06 07:35:58;;;;;;;10.80;7.60;;;11.50;81.90;;;;;;5018425;28;20459;-71
2022/04/06 07:38:26;;;;;;;10.43;7.00;;;11.50;81.70;;;;;;5016293;28;20490;-70
2022/04/06 07:40:55;;;;;;;11.03;7.67;;;11.50;81.90;;;;;;5016298;28;20468;-70
2022/04/06 07:43:23;;;;;;;11.87;8.03;;;11.40;81.60;;;;;;5014051;28;20472;-70
2022/04/06 07:45:51;;;;;;;9.60;7.20;;;11.40;81.80;;;;;;5016896;28;20492;-70
2022/04/06 07:48:19;;;;;;;9.80;7.10;;;11.40;81.90;;;;;;5017343;28;20492;-70
2022/04/06 07:50:54;;;;;;;10.93;7.97;;;11.40;81.90;;;;;;5025895;28;20455;-70
2022/04/06 07:53:27;;;;;;;14.10;8.70;;;11.40;81.80;;;;;;5021675;28;20451;-70
2022/04/06 07:55:57;;;;;;;10.87;8.00;;;11.50;81.80;;;;;;5020263;28;20819;-71
2022/04/06 07:58:25;;;;;;;9.83;7.50;;;11.40;81.80;;;;;;5016706;28;20483;-74
2022/04/06 08:00:53;;;;;;;12.50;7.73;;;11.50;81.90;;;;;;5030388;28;20488;-70
2022/04/06 08:03:21;;;;;;;14.57;8.50;;;11.50;81.80;;;;;;5020463;28;20448;-71
2022/04/06 08:05:50;;;;;;;10.70;7.87;;;11.50;81.80;;;;;;5023660;28;20503;-70
2022/04/06 08:08:18;;;;;;;12.77;7.67;;;11.60;81.90;;;;;;5019064;28;20484;-71
2022/04/06 08:10:46;;;;;;;12.37;7.77;;;11.60;81.90;;;;;;5018725;28;20448;-70
2022/04/06 08:13:15;;;;;;;11.50;8.00;;;11.70;81.80;;;;;;5022136;28;20470;-71
2022/04/06 08:15:43;;;;;;;11.37;7.13;;;11.70;81.70;;;;;;5017397;28;20485;-70
2022/04/06 08:18:12;;;;;;;10.23;7.37;;;11.70;81.60;;;;;;5018627;28;21087;-70
2022/04/06 08:20:40;;;;;;;10.10;6.83;;;11.60;81.60;;;;;;5015945;28;20978;-70
2022/04/06 08:23:08;;;;;;;11.00;7.60;;;11.60;81.60;;;;;;5021066;28;20462;-70
2022/04/06 08:25:36;;;;;;;10.47;7.50;;;11.60;81.50;;;;;;5015920;28;21044;-70
2022/04/06 08:28:07;;;;;;;12.70;8.03;;;11.60;81.50;;;;;;5018686;28;20577;-69
2022/04/06 08:30:39;;;;;;;12.93;7.70;;;11.60;81.40;;;;;;5017924;28;21001;-70
2022/04/06 08:33:09;;;;;;;11.23;7.80;;;11.60;81.40;;;;;;5019960;28;20453;-70
2022/04/06 08:35:37;;;;;;;11.33;7.43;;;11.70;81.10;;;;;;5018483;28;20524;-71
2022/04/06 08:38:05;;;;;;;10.37;7.53;;;11.70;81.00;;;;;;5017047;28;20451;-71
2022/04/06 08:40:35;;;;;;;10.80;7.87;;;11.70;80.80;;;;;;5019951;28;20472;-71
2022/04/06 08:43:04;;;;;;;8.57;6.73;;;11.60;80.90;;;;;;5014789;28;20902;-71
2022/04/06 08:45:34;;;;;;;10.30;6.70;;;11.60;81.00;;;;;;5017026;28;20479;-70
2022/04/06 08:48:06;;;;;;;9.70;6.63;;;11.60;80.90;;;;;;5013529;28;20476;-71
2022/04/06 08:50:36;;;;;;;9.90;6.87;;;11.60;80.90;;;;;;5029683;28;20817;-71
2022/04/06 08:53:12;;;;;;;13.00;7.37;;;11.60;80.90;;;;;;5016801;28;20452;-71
2022/04/06 08:55:40;;;;;;;9.93;6.70;;;11.60;80.60;;;;;;5018699;28;20453;-71
2022/04/06 08:58:08;;;;;;;10.57;6.27;;;11.60;80.70;;;;;;5014370;28;20480;-71
2022/04/06 09:00:37;;;;;;;10.90;6.43;;;11.60;80.70;;;;;;5018495;28;20471;-71
2022/04/06 09:03:07;;;;;;;8.57;6.60;;;11.60;80.40;;;;;;5024597;28;20981;-70
2022/04/06 09:05:35;;;;;;;11.33;6.13;;;11.70;80.70;;;;;;5022321;28;20639;-70
2022/04/06 09:08:05;;;;;;;10.07;5.90;;;11.80;80.30;;;;;;5023398;28;20473;-71
2022/04/06 09:10:41;;;;;;;9.43;6.43;;;11.80;80.30;;;;;;5018616;28;20837;-70
2022/04/06 09:13:11;;;;;;;14.50;6.90;;;11.90;80.40;;;;;;5014562;28;20459;-70
2022/04/06 09:15:39;;;;;;;8.73;5.47;;;11.90;80.20;;;;;;5017582;28;20483;-70
2022/04/06 09:18:09;;;;;;;10.20;6.27;;;12.00;80.20;;;;;;5016151;28;21005;-70
2022/04/06 09:20:37;;;;;;;9.13;5.90;;;12.00;79.80;;;;;;5020909;28;21090;-70
2022/04/06 09:23:07;;;;;;;11.13;6.10;;;12.00;79.60;;;;;;5022018;28;20452;-70
2022/04/06 09:25:36;;;;;;;9.30;5.73;;;12.10;79.60;;;;;;5020057;28;20448;-71
2022/04/06 09:28:11;;;;;;;13.57;6.40;;;12.20;79.40;;;;;;5020969;28;20495;-70
2022/04/06 09:30:40;;;;;;;10.83;5.33;;;12.20;79.20;;;;;;5020118;28;20482;-70
2022/04/06 09:33:15;;;;;;;9.90;5.70;;;12.20;79.30;;;;;;5030271;28;20538;-70
2022/04/06 09:35:44;;;;;;;9.10;5.10;;;12.40;79.20;;;;;;5023893;28;20459;-71
2022/04/06 09:38:13;;;;;;;9.43;5.77;;;12.40;78.90;;;;;;5021254;28;20487;-70
2022/04/06 09:40:43;;;;;;;8.00;5.40;;;12.40;78.60;;;;;;5021813;28;20448;-70
2022/04/06 09:43:24;;;;;;;8.60;5.20;;;12.50;78.60;;;;;;5014943;28;20452;-70
2022/04/06 09:49:00;;;;;;;9.67;5.40;;;12.60;78.00;;;;;;5018918;28;20538;-70
2022/04/06 09:51:28;;;;;;;9.30;5.60;;;12.70;78.00;;;;;;5018345;28;20857;-69
2022/04/06 09:53:56;;;;;;;11.93;4.97;;;12.70;77.80;;;;;;5021285;28;20479;-70
2022/04/06 09:56:24;;;;;;;9.07;5.10;;;12.70;77.80;;;;;;5026910;28;20562;-69
2022/04/06 09:58:53;;;;;;;9.40;5.33;;;12.70;77.40;;;;;;5037397;28;21010;-70
2022/04/06 10:01:21;;;;;;;10.77;4.87;;;12.70;77.40;;;;;;5019966;28;20468;-70
2022/04/06 10:03:53;;;;;;;7.50;4.70;;;12.70;76.80;;;;;;5025680;28;20479;-70
2022/04/06 10:06:23;;;;;;;10.13;5.10;;;12.70;77.20;;;;;;5023480;28;20455;-71
2022/04/06 10:08:52;;;;;;;8.87;5.07;;;12.70;76.60;;;;;;5019386;28;20980;-70
2022/04/06 10:11:21;;;;;;;9.37;4.93;;;12.80;77.00;;;;;;5022355;28;20458;-70
2022/04/06 10:13:49;;;;;;;10.87;4.80;;;12.80;76.30;;;;;;5035850;28;20445;-70
2022/04/06 10:16:25;;;;;;;9.53;5.27;;;12.90;76.30;;;;;;5023298;28;20479;-69
2022/04/06 10:18:54;;;;;;;8.43;5.23;;;13.00;75.70;;;;;;5023027;28;20502;-69
2022/04/06 10:21:31;;;;;;;8.50;5.43;;;13.00;75.90;;;;;;5021079;28;20547;-71
2022/04/06 10:24:23;;;;;;;9.10;4.93;;;12.90;74.70;;;;;;5026059;28;20466;-70
2022/04/06 10:27:05;;;;;;;9.27;5.40;;;13.00;75.50;;;;;;5021448;28;20467;-70
2022/04/06 10:29:33;;;;;;;8.23;4.33;;;13.00;74.70;;;;;;5019341;28;20585;-70
2022/04/06 10:32:01;;;;;;;13.00;5.70;;;13.00;75.00;;;;;;5017962;28;20822;-70
2022/04/06 10:34:37;;;;;;;8.37;4.30;;;13.00;74.50;;;;;;5013548;28;20484;-71
2022/04/06 10:37:10;;;;;;;9.83;4.50;;;13.10;75.00;;;;;;5017150;28;20473;-70
2022/04/06 10:39:59;;;;;;;10.23;4.90;;;13.10;74.30;;;;;;5021199;28;21005;-70
2022/04/06 10:42:32;;;;;;;8.90;4.60;;;13.10;73.90;;;;;;5018276;28;20453;-70
2022/04/06 10:45:01;;;;;;;7.80;4.47;;;13.10;73.80;;;;;;5023373;28;20494;-70
2022/04/06 10:47:31;;;;;;;7.60;4.33;;;13.10;73.90;;;;;;5023126;28;20476;-70
2022/04/06 10:50:22;;;;;;;8.00;4.13;;;13.10;74.10;;;;;;5024641;28;21024;-70
2022/04/06 10:53:28;;;;;;;8.57;5.00;;;13.00;73.40;;;;;;5027332;28;20470;-69
2022/04/06 10:55:58;;;;;;;7.80;4.90;;;13.00;73.80;;;;;;5025156;28;21246;-70
2022/04/06 10:58:27;;;;;;;9.27;4.20;;;13.00;74.30;;;;;;5016570;28;20463;-70
2022/04/06 11:01:14;;;;;;;10.40;4.93;;;13.10;74.20;;;;;;5019812;28;20468;-69
2022/04/06 11:03:55;;;;;;;7.03;4.90;;;13.10;73.80;;;;;;5017758;28;20449;-70
2022/04/06 11:06:53;;;;;;;8.73;4.70;;;13.10;73.80;;;;;;5020093;28;20460;-71
2022/04/06 11:12:18;;;;;;;7.77;4.20;;;13.10;74.00;;;;;;5011344;28;20973;-71
2022/04/06 11:14:49;;;;;;;6.87;4.10;;;13.20;73.90;;;;;;5029008;28;20456;-70
2022/04/06 11:17:42;;;;;;;6.10;4.07;;;13.20;73.60;;;;;;5018677;28;20564;-70
2022/04/06 11:20:11;;;;;;;8.40;4.10;;;13.30;73.40;;;;;;5017353;28;20471;-70
2022/04/06 11:22:42;;;;;;;8.63;4.40;;;13.30;73.50;;;;;;5018202;28;20451;-70
2022/04/06 11:25:13;;;;;;;7.20;3.47;;;13.30;73.20;;;;;;5018559;28;20502;-71
2022/04/06 11:27:43;;;;;;;9.37;4.50;;;13.30;72.80;;;;;;5013849;28;20456;-71
2022/04/06 11:30:13;;;;;;;7.00;4.07;;;13.40;73.20;;;;;;5015835;28;20483;-71
2022/04/06 11:32:44;;;;;;;9.00;3.90;;;13.40;73.30;;;;;;5012194;28;20449;-72
2022/04/06 11:35:13;;;;;;;6.80;3.43;;;13.40;73.40;;;;;;5011471;28;20473;-70
2022/04/06 11:37:43;;;;;;;5.43;3.57;;;13.50;73.20;;;;;;5032530;28;20523;-70
2022/04/06 11:40:13;;;;;;;7.40;3.80;;;13.60;72.70;;;;;;5018903;28;20491;-70
2022/04/06 11:42:41;;;;;;;7.30;3.20;;;13.60;72.50;;;;;;5015608;28;20484;-71
2022/04/06 11:45:10;;;;;;;6.80;3.23;;;13.70;72.70;;;;;;5017099;28;20520;-70
2022/04/06 11:47:39;;;;;;;6.00;3.30;;;13.70;72.70;;;;;;5014130;28;20488;-71
2022/04/06 11:50:12;;;;;;;7.90;3.60;;;13.80;72.60;;;;;;5013294;28;20911;-70
2022/04/06 11:52:42;;;;;;;6.33;3.20;;;13.80;71.70;;;;;;5015417;28;20459;-70
2022/04/06 11:55:10;;;;;;;7.03;3.23;;;13.70;71.00;;;;;;5015526;28;20451;-70
2022/04/06 11:57:42;;;;;;;6.33;3.40;;;13.80;71.90;;;;;;5015778;28;20866;-71
2022/04/06 12:00:13;;;;;;;6.60;3.10;;;13.70;71.70;;;;;;5015560;28;21015;-70
2022/04/06 12:02:51;;;;;;;8.77;3.60;;;13.80;71.30;;;;;;5013216;28;20460;-70
2022/04/06 12:05:20;;;;;;;6.77;3.57;;;13.80;71.10;;;;;;5010553;28;20470;-70
2022/04/06 12:08:08;;;;;;;8.00;2.83;;;13.80;71.60;;;;;;5011563;28;20467;-70
2022/04/06 12:10:36;;;;;;;9.53;3.57;;;13.80;71.00;;;;;;5033597;28;20578;-69
2022/04/06 12:13:06;;;;;;;8.70;3.17;;;13.90;71.20;;;;;;5016650;28;20519;-70
2022/04/06 12:15:34;;;;;;;5.13;2.70;;;13.80;71.20;;;;;;5016680;28;21015;-71
2022/04/06 12:18:03;;;;;;;5.60;2.90;;;13.90;71.00;;;;;;5018188;28;20452;-70
2022/04/06 12:20:31;;;;;;;7.23;3.80;;;13.80;70.60;;;;;;5029150;28;20970;-71
2022/04/06 12:23:05;;;;;;;8.33;3.70;;;13.80;70.90;;;;;;5016164;28;20507;-70
2022/04/06 12:25:34;;;;;;;5.47;3.23;;;13.90;70.60;;;;;;5015214;28;20565;-69
2022/04/06 12:28:15;;;;;;;7.23;3.30;;;13.90;70.80;;;;;;5014968;28;20982;-69
2022/04/06 12:30:54;;;;;;;6.77;3.50;;;13.90;70.80;;;;;;5013041;28;20476;-70
2022/04/06 12:33:35;;;;;;;8.73;3.47;;;13.80;70.70;;;;;;5015914;28;20979;-69
2022/04/06 12:36:17;;;;;;;8.67;3.57;;;13.90;70.80;;;;;;5016531;28;20449;-70
2022/04/06 12:38:58;;;;;;;6.37;3.60;;;13.90;70.30;;;;;;5014609;28;20511;-70
2022/04/06 12:41:29;;;;;;;6.67;3.40;;;13.90;70.40;;;;;;5016347;28;20444;-70
2022/04/06 12:44:00;;;;;;;7.33;3.73;;;13.80;70.70;;;;;;5015532;28;20445;-70
2022/04/06 12:46:40;;;;;;;7.80;3.40;;;13.80;70.90;;;;;;5017446;28;20915;-69
2022/04/06 12:49:32;;;;;;;7.63;4.10;;;13.90;71.10;;;;;;5022771;28;20566;-71
2022/04/06 12:52:09;;;;;;;7.53;4.03;;;13.90;71.00;;;;;;5023460;28;21250;-70
2022/04/06 12:54:39;;;;;;;6.70;3.97;;;13.90;71.00;;;;;;5018613;28;20548;-69
2022/04/06 12:57:13;;;;;;;5.87;3.60;;;13.90;71.10;;;;;;5016268;28;20492;-70
2022/04/06 12:59:45;;;;;;;6.13;3.87;;;13.90;71.00;;;;;;5019648;28;20471;-70
2022/04/06 13:02:27;;;;;;;5.90;3.20;;;13.80;70.80;;;;;;5014480;28;20476;-70